createdAt,value
2018-07-29T00:01:10.400Z,29.50
2018-07-29T00:03:39.251Z,29.50
2018-07-29T00:06:08.189Z,29.40
2018-07-29T00:08:37.120Z,29.40
2018-07-29T00:11:05.987Z,29.40
2018-07-29T00:13:35.487Z,29.40
2018-07-29T00:16:04.339Z,29.40
2018-07-29T00:18:33.186Z,29.40
2018-07-29T00:21:02.644Z,29.40
2018-07-29T00:23:32.070Z,29.40
2018-07-29T00:26:01.007Z,29.40
2018-07-29T00:28:32.462Z,29.50
2018-07-29T00:31:01.303Z,29.50
2018-07-29T00:33:30.150Z,29.50
2018-07-29T00:35:59.043Z,29.50
2018-07-29T00:38:30.219Z,29.50
2018-07-29T00:40:59.961Z,29.60
2018-07-29T00:43:29.115Z,29.60
2018-07-29T00:45:58.028Z,29.60
2018-07-29T00:48:27.179Z,29.60
2018-07-29T00:50:57.719Z,29.60
2018-07-29T00:53:26.569Z,29.60
2018-07-29T00:55:55.488Z,29.60
2018-07-29T00:58:24.347Z,29.60
2018-07-29T01:00:53.646Z,29.60
2018-07-29T01:03:22.544Z,29.60
2018-07-29T01:05:51.746Z,29.60
2018-07-29T01:08:21.016Z,29.60
2018-07-29T01:10:49.874Z,29.50
2018-07-29T01:13:19.068Z,29.60
2018-07-29T01:15:49.020Z,29.50
2018-07-29T01:18:18.615Z,29.50
2018-07-29T01:20:47.797Z,29.60
2018-07-29T01:23:17.107Z,29.60
2018-07-29T01:25:46.210Z,29.60
2018-07-29T01:28:15.098Z,29.60
2018-07-29T01:30:43.927Z,29.50
2018-07-29T01:33:13.006Z,29.50
2018-07-29T01:35:42.193Z,29.50
2018-07-29T01:38:11.280Z,29.50
2018-07-29T01:40:40.375Z,29.40
2018-07-29T01:43:09.267Z,29.30
2018-07-29T01:45:38.151Z,29.20
2018-07-29T01:48:07.029Z,29.10
2018-07-29T01:50:36.389Z,29.10
2018-07-29T01:53:05.235Z,29.00
2018-07-29T01:55:34.086Z,29.00
2018-07-29T01:58:02.948Z,28.90
2018-07-29T02:00:31.800Z,28.90
2018-07-29T02:03:00.635Z,28.80
2018-07-29T02:05:29.506Z,28.80
2018-07-29T02:07:58.364Z,28.80
2018-07-29T02:10:27.239Z,28.80
2018-07-29T02:12:56.140Z,28.90
2018-07-29T02:15:25.131Z,29.00
2018-07-29T02:17:53.963Z,29.00
2018-07-29T02:20:22.826Z,29.10
2018-07-29T02:22:51.672Z,29.10
2018-07-29T02:25:20.559Z,29.20
2018-07-29T02:27:49.528Z,29.20
2018-07-29T02:30:18.415Z,29.20
2018-07-29T02:32:47.644Z,29.30
2018-07-29T02:35:16.487Z,29.30
2018-07-29T02:37:46.191Z,29.30
2018-07-29T02:40:15.264Z,29.40
2018-07-29T02:42:44.136Z,29.40
2018-07-29T02:45:13.018Z,29.40
2018-07-29T02:47:41.863Z,29.40
2018-07-29T02:50:10.761Z,29.30
2018-07-29T02:52:39.798Z,29.30
2018-07-29T02:55:08.639Z,29.30
2018-07-29T02:57:37.490Z,29.20
2018-07-29T03:00:06.363Z,29.20
2018-07-29T03:02:35.211Z,29.20
2018-07-29T03:05:05.516Z,29.10
2018-07-29T03:07:35.007Z,29.10
2018-07-29T03:10:03.876Z,29.00
2018-07-29T03:12:32.788Z,29.00
2018-07-29T03:15:01.707Z,29.00
2018-07-29T03:17:30.814Z,29.00
2018-07-29T03:20:00.053Z,29.00
2018-07-29T03:22:28.914Z,29.10
2018-07-29T03:24:57.780Z,29.10
2018-07-29T03:27:26.623Z,29.10
2018-07-29T03:29:55.463Z,29.20
2018-07-29T03:32:24.351Z,29.20
2018-07-29T03:34:53.420Z,29.20
2018-07-29T03:37:22.258Z,29.20
2018-07-29T03:39:51.424Z,29.20
2018-07-29T03:42:20.267Z,29.10
2018-07-29T03:44:49.387Z,29.00
2018-07-29T03:47:18.263Z,29.00
2018-07-29T03:49:47.142Z,29.00
2018-07-29T03:52:16.360Z,28.90
2018-07-29T03:54:45.358Z,28.90
2018-07-29T03:57:14.506Z,28.90
2018-07-29T03:59:43.366Z,28.80
2018-07-29T04:02:12.278Z,28.80
2018-07-29T04:04:41.855Z,28.80
2018-07-29T04:07:10.703Z,28.80
2018-07-29T04:09:39.850Z,28.90
2018-07-29T04:12:08.755Z,28.90
2018-07-29T04:14:37.520Z,28.90
2018-07-29T04:17:06.367Z,28.90
2018-07-29T04:19:35.218Z,28.90
2018-07-29T04:22:04.171Z,29.00
2018-07-29T04:24:33.009Z,29.00
2018-07-29T04:27:02.226Z,29.00
2018-07-29T04:29:31.110Z,29.00
2018-07-29T04:32:00.292Z,29.00
2018-07-29T04:34:29.161Z,29.00
2018-07-29T04:36:58.024Z,29.00
2018-07-29T04:39:27.130Z,29.00
2018-07-29T04:41:56.031Z,29.00
2018-07-29T04:44:27.279Z,28.90
2018-07-29T04:46:56.159Z,29.00
2018-07-29T04:49:25.019Z,29.00
2018-07-29T04:51:53.877Z,29.10
2018-07-29T04:54:22.948Z,29.10
2018-07-29T04:56:51.809Z,29.10
2018-07-29T04:59:20.667Z,29.10
2018-07-29T05:01:49.818Z,29.10
2018-07-29T05:04:18.694Z,29.10
2018-07-29T05:06:47.630Z,29.20
2018-07-29T05:09:17.905Z,29.20
2018-07-29T05:11:47.107Z,29.20
2018-07-29T05:14:17.074Z,29.20
2018-07-29T05:16:45.920Z,29.30
2018-07-29T05:19:14.776Z,29.30
2018-07-29T05:21:43.619Z,29.30
2018-07-29T05:24:12.723Z,29.30
2018-07-29T05:26:41.898Z,29.30
2018-07-29T05:29:10.754Z,29.30
2018-07-29T05:31:39.685Z,29.30
2018-07-29T05:34:08.561Z,29.20
2018-07-29T05:36:37.662Z,29.30
2018-07-29T05:39:08.232Z,29.30
2018-07-29T05:41:37.087Z,29.30
2018-07-29T05:44:06.799Z,29.40
2018-07-29T05:46:36.086Z,29.40
2018-07-29T05:49:05.494Z,29.40
2018-07-29T05:51:34.590Z,29.40
2018-07-29T05:54:03.748Z,29.40
2018-07-29T05:56:32.888Z,29.40
2018-07-29T05:59:01.731Z,29.30
2018-07-29T06:01:30.652Z,29.30
2018-07-29T06:03:59.512Z,29.20
2018-07-29T06:06:28.369Z,29.30
2018-07-29T06:08:57.219Z,29.20
2018-07-29T06:11:26.064Z,29.20
2018-07-29T06:13:55.065Z,29.20
2018-07-29T06:16:23.899Z,29.20
2018-07-29T06:18:53.194Z,29.20
2018-07-29T06:21:22.534Z,29.20
2018-07-29T06:23:51.391Z,29.20
2018-07-29T06:26:20.600Z,29.20
2018-07-29T06:28:49.513Z,29.20
2018-07-29T06:31:18.375Z,29.20
2018-07-29T06:33:47.211Z,29.20
2018-07-29T06:36:16.421Z,29.20
2018-07-29T06:38:45.298Z,29.20
2018-07-29T06:41:14.158Z,29.20
2018-07-29T06:43:43.225Z,29.30
2018-07-29T06:46:12.088Z,29.30
2018-07-29T06:48:40.956Z,29.40
2018-07-29T06:51:09.818Z,29.50
2018-07-29T06:53:39.002Z,29.60
2018-07-29T06:56:07.873Z,29.60
2018-07-29T06:58:36.740Z,29.70
2018-07-29T07:01:05.595Z,29.80
2018-07-29T07:03:34.452Z,29.90
2018-07-29T07:06:03.589Z,30.00
2018-07-29T07:08:32.467Z,30.10
2018-07-29T07:11:01.318Z,30.20
2018-07-29T07:13:30.393Z,30.20
2018-07-29T07:15:59.315Z,30.30
2018-07-29T07:18:28.355Z,30.40
2018-07-29T07:20:57.438Z,30.40
2018-07-29T07:23:26.306Z,30.40
2018-07-29T07:25:55.393Z,30.50
2018-07-29T07:28:24.597Z,30.60
2018-07-29T07:30:53.493Z,30.70
2018-07-29T07:33:23.748Z,30.80
2018-07-29T07:35:52.731Z,31.00
2018-07-29T07:38:23.008Z,31.10
2018-07-29T07:40:51.963Z,31.30
2018-07-29T07:43:20.840Z,31.50
2018-07-29T07:45:50.197Z,31.70
2018-07-29T07:48:19.255Z,32.00
2018-07-29T07:50:48.106Z,32.20
2018-07-29T07:53:17.149Z,32.40
2018-07-29T07:55:46.007Z,32.40
2018-07-29T07:58:15.097Z,32.60
2018-07-29T08:00:44.054Z,32.80
2018-07-29T08:03:13.612Z,33.00
2018-07-29T08:05:42.472Z,33.60
2018-07-29T08:08:11.320Z,34.00
2018-07-29T08:10:40.149Z,34.50
2018-07-29T08:13:09.027Z,35.30
2018-07-29T08:15:37.895Z,36.00
2018-07-29T08:18:07.254Z,36.50
2018-07-29T08:20:36.146Z,36.60
2018-07-29T08:23:06.164Z,36.80
2018-07-29T08:25:35.227Z,36.90
2018-07-29T08:28:04.256Z,36.60
2018-07-29T08:30:33.078Z,36.00
2018-07-29T08:33:01.979Z,35.40
2018-07-29T08:35:30.897Z,35.20
2018-07-29T08:37:59.745Z,35.10
2018-07-29T08:40:28.816Z,35.00
2018-07-29T08:42:57.867Z,35.10
2018-07-29T08:45:26.897Z,35.20
2018-07-29T08:47:56.092Z,35.40
2018-07-29T08:50:25.140Z,35.50
2018-07-29T08:52:54.155Z,35.70
2018-07-29T08:55:23.911Z,35.90
2018-07-29T08:57:52.818Z,36.20
2018-07-29T09:00:21.781Z,36.40
2018-07-29T09:02:50.761Z,36.70
2018-07-29T09:05:19.882Z,37.00
2018-07-29T09:07:48.891Z,37.40
2018-07-29T09:10:17.755Z,38.10
2018-07-29T09:12:46.701Z,38.60
2018-07-29T09:15:15.580Z,39.10
2018-07-29T09:17:44.678Z,39.50
2018-07-29T09:20:13.588Z,39.50
2018-07-29T09:22:42.468Z,39.50
2018-07-29T09:25:11.364Z,39.80
2018-07-29T09:27:40.239Z,39.60
2018-07-29T09:30:09.100Z,39.10
2018-07-29T09:32:38.265Z,38.30
2018-07-29T09:35:07.155Z,37.30
2018-07-29T09:37:36.010Z,36.60
2018-07-29T09:40:04.930Z,35.80
2018-07-29T09:42:34.103Z,35.40
2018-07-29T09:45:02.973Z,35.00
2018-07-29T09:47:31.911Z,34.60
2018-07-29T09:50:00.765Z,34.20
2018-07-29T09:52:29.871Z,33.80
2018-07-29T09:54:59.111Z,33.50
2018-07-29T09:57:28.011Z,33.30
2018-07-29T09:59:57.104Z,33.10
2018-07-29T10:02:25.990Z,33.10
2018-07-29T10:04:54.956Z,33.20
2018-07-29T10:07:23.858Z,33.40
2018-07-29T10:09:52.788Z,33.50
2018-07-29T10:12:21.725Z,33.60
2018-07-29T10:14:50.563Z,33.60
2018-07-29T10:17:19.592Z,33.70
2018-07-29T10:19:48.803Z,33.60
2018-07-29T10:22:17.720Z,33.60
2018-07-29T10:24:46.766Z,33.60
2018-07-29T10:27:16.264Z,33.80
2018-07-29T10:29:45.191Z,34.10
2018-07-29T10:32:14.074Z,34.20
2018-07-29T10:34:42.950Z,34.60
2018-07-29T10:37:11.835Z,34.80
2018-07-29T10:39:40.724Z,35.10
2018-07-29T10:42:09.718Z,35.40
2018-07-29T10:44:38.783Z,35.60
2018-07-29T10:47:07.667Z,35.80
2018-07-29T10:49:36.743Z,36.00
2018-07-29T10:52:05.874Z,36.20
2018-07-29T10:54:34.732Z,36.30
2018-07-29T10:57:03.615Z,36.50
2018-07-29T10:59:32.691Z,36.70
2018-07-29T11:02:01.900Z,36.80
2018-07-29T11:04:30.768Z,37.00
2018-07-29T11:06:59.966Z,37.10
2018-07-29T11:09:29.155Z,37.20
2018-07-29T11:11:58.292Z,37.40
2018-07-29T11:14:28.560Z,37.50
2018-07-29T11:16:57.667Z,37.50
2018-07-29T11:19:26.579Z,37.60
2018-07-29T11:21:55.443Z,37.80
2018-07-29T11:24:24.540Z,37.90
2018-07-29T11:26:53.442Z,38.00
2018-07-29T11:29:22.684Z,38.00
2018-07-29T11:31:51.544Z,37.90
2018-07-29T11:34:21.275Z,37.90
2018-07-29T11:36:50.348Z,37.90
2018-07-29T11:39:19.449Z,37.90
2018-07-29T11:41:48.341Z,37.90
2018-07-29T11:44:17.179Z,37.70
2018-07-29T11:46:46.054Z,37.60
2018-07-29T11:49:14.942Z,37.70
2018-07-29T11:51:44.419Z,37.80
2018-07-29T11:54:13.347Z,37.90
2018-07-29T11:56:43.371Z,38.10
2018-07-29T11:59:12.301Z,38.10
2018-07-29T12:01:41.643Z,37.90
2018-07-29T12:04:10.543Z,37.90
2018-07-29T12:06:57.244Z,37.80
2018-07-29T12:09:27.852Z,37.80
2018-07-29T12:12:02.658Z,37.80
2018-07-29T12:14:33.282Z,37.80
2018-07-29T12:17:02.203Z,38.00
2018-07-29T12:19:31.066Z,38.10
2018-07-29T12:22:00.159Z,38.20
2018-07-29T12:24:29.042Z,38.20
2018-07-29T12:26:57.941Z,38.30
2018-07-29T12:29:26.830Z,38.40
2018-07-29T12:31:55.726Z,38.50
2018-07-29T12:34:24.606Z,38.50
2018-07-29T12:36:53.761Z,38.50
2018-07-29T12:39:22.860Z,38.60
2018-07-29T12:41:58.464Z,38.60
2018-07-29T12:44:27.471Z,38.60
2018-07-29T12:46:57.669Z,38.70
2018-07-29T12:49:26.551Z,38.80
2018-07-29T12:51:56.664Z,38.80
2018-07-29T12:54:25.815Z,39.00
2018-07-29T12:56:54.871Z,39.00
2018-07-29T12:59:24.068Z,38.90
2018-07-29T13:01:53.190Z,38.80
2018-07-29T13:04:22.128Z,38.80
2018-07-29T13:06:51.020Z,38.90
2018-07-29T13:09:20.096Z,39.00
2018-07-29T13:11:49.003Z,39.00
2018-07-29T13:14:17.883Z,39.00
2018-07-29T13:16:46.906Z,39.00
2018-07-29T13:19:15.894Z,39.10
2018-07-29T13:21:44.765Z,39.10
2018-07-29T13:24:13.891Z,39.20
2018-07-29T13:26:43.092Z,39.20
2018-07-29T13:29:11.983Z,39.30
2018-07-29T13:31:40.888Z,39.30
2018-07-29T13:34:09.757Z,39.30
2018-07-29T13:36:38.667Z,39.40
2018-07-29T13:39:08.566Z,39.40
2018-07-29T13:41:37.453Z,39.30
2018-07-29T13:44:06.429Z,39.20
2018-07-29T13:46:35.303Z,39.10
2018-07-29T13:49:04.159Z,39.00
2018-07-29T13:51:33.094Z,38.80
2018-07-29T13:54:01.968Z,38.70
2018-07-29T13:56:30.848Z,38.60
2018-07-29T13:58:59.740Z,38.60
2018-07-29T14:01:28.631Z,38.50
2018-07-29T14:03:57.527Z,38.60
2018-07-29T14:06:26.453Z,38.60
2018-07-29T14:08:55.300Z,38.70
2018-07-29T14:11:24.631Z,38.70
2018-07-29T14:13:53.489Z,38.70
2018-07-29T14:16:22.427Z,38.70
2018-07-29T14:18:51.319Z,38.70
2018-07-29T14:21:20.733Z,38.70
2018-07-29T14:23:49.603Z,38.70
2018-07-29T14:26:18.548Z,38.60
2018-07-29T14:28:47.466Z,38.60
2018-07-29T14:31:16.677Z,38.50
2018-07-29T14:33:45.907Z,38.50
2018-07-29T14:36:15.119Z,38.40
2018-07-29T14:38:44.300Z,38.20
2018-07-29T14:41:13.582Z,38.10
2018-07-29T14:43:42.467Z,38.00
2018-07-29T14:46:11.367Z,37.90
2018-07-29T14:48:40.257Z,37.80
2018-07-29T14:51:09.141Z,37.60
2018-07-29T14:53:38.011Z,37.50
2018-07-29T14:56:06.881Z,37.50
2018-07-29T14:58:35.803Z,37.40
2018-07-29T15:01:04.918Z,37.30
2018-07-29T15:03:34.342Z,37.30
2018-07-29T15:06:03.244Z,37.30
2018-07-29T15:08:32.183Z,37.10
2018-07-29T15:11:01.051Z,36.80
2018-07-29T15:13:29.943Z,36.60
2018-07-29T15:15:58.824Z,36.20
2018-07-29T15:18:27.718Z,36.10
2018-07-29T15:20:56.590Z,36.00
2018-07-29T15:23:25.475Z,36.00
2018-07-29T15:25:54.367Z,35.90
2018-07-29T15:28:23.288Z,35.90
2018-07-29T15:30:52.311Z,35.80
2018-07-29T15:33:21.221Z,35.70
2018-07-29T15:35:50.511Z,35.50
2018-07-29T15:38:19.399Z,35.40
2018-07-29T15:40:49.118Z,35.20
2018-07-29T15:43:18.007Z,35.00
2018-07-29T15:45:46.915Z,34.90
2018-07-29T15:48:15.953Z,34.80
2018-07-29T15:50:45.000Z,34.60
2018-07-29T15:53:14.326Z,34.60
2018-07-29T15:55:43.488Z,34.50
2018-07-29T15:58:12.383Z,34.50
2018-07-29T16:00:41.331Z,34.50
2018-07-29T16:03:10.220Z,34.40
2018-07-29T16:05:45.500Z,34.40
2018-07-29T16:08:14.406Z,34.40
2018-07-29T16:10:43.289Z,34.30
2018-07-29T16:13:12.850Z,34.30
2018-07-29T16:15:41.750Z,34.30
2018-07-29T16:18:10.598Z,34.20
2018-07-29T16:20:39.764Z,33.90
2018-07-29T16:23:08.669Z,33.90
2018-07-29T16:25:37.751Z,33.90
2018-07-29T16:28:06.748Z,33.80
2018-07-29T16:30:36.335Z,33.90
2018-07-29T16:33:05.411Z,33.80
2018-07-29T16:35:34.362Z,33.70
2018-07-29T16:38:03.263Z,33.60
2018-07-29T16:43:01.764Z,33.50
2018-07-29T16:45:30.689Z,33.50
2018-07-29T16:48:00.917Z,33.40
2018-07-29T16:50:29.794Z,33.10
2018-07-29T16:52:58.769Z,32.90
2018-07-29T16:55:27.661Z,32.90
2018-07-29T16:57:56.891Z,32.90
2018-07-29T17:00:26.135Z,32.90
2018-07-29T17:02:55.142Z,32.90
2018-07-29T17:05:24.212Z,32.80
2018-07-29T17:07:53.127Z,32.70
2018-07-29T17:10:22.182Z,32.60
2018-07-29T17:12:51.715Z,32.60
2018-07-29T17:15:20.938Z,32.60
2018-07-29T17:17:49.846Z,32.60
2018-07-29T17:20:18.760Z,32.60
2018-07-29T17:22:47.588Z,32.40
2018-07-29T17:25:16.779Z,32.40
2018-07-29T17:27:45.867Z,32.30
2018-07-29T17:30:14.813Z,32.30
2018-07-29T17:32:43.905Z,32.20
2018-07-29T17:35:12.788Z,32.10
2018-07-29T17:37:41.732Z,32.00
2018-07-29T17:40:11.002Z,31.90
2018-07-29T17:42:40.521Z,31.80
2018-07-29T17:45:09.335Z,31.70
2018-07-29T17:47:38.258Z,31.70
2018-07-29T17:50:07.290Z,31.50
2018-07-29T17:52:36.192Z,31.40
2018-07-29T17:55:05.214Z,31.40
2018-07-29T17:57:34.319Z,31.50
2018-07-29T18:00:03.183Z,31.50
2018-07-29T18:02:32.861Z,31.50
2018-07-29T18:05:02.388Z,31.50
2018-07-29T18:07:32.175Z,31.60
2018-07-29T18:10:01.056Z,31.50
2018-07-29T18:12:29.982Z,31.50
2018-07-29T18:14:59.169Z,31.50
2018-07-29T18:17:28.127Z,31.40
2018-07-29T18:19:57.034Z,31.20
2018-07-29T18:22:26.239Z,31.10
2018-07-29T18:24:55.442Z,31.10
2018-07-29T18:27:24.842Z,31.00
2018-07-29T18:29:53.662Z,31.00
2018-07-29T18:32:22.535Z,31.00
2018-07-29T18:34:51.596Z,30.90
2018-07-29T18:37:21.212Z,30.90
2018-07-29T18:39:50.218Z,30.80
2018-07-29T18:42:19.633Z,30.70
2018-07-29T18:44:48.559Z,30.70
2018-07-29T18:47:22.469Z,30.60
2018-07-29T18:49:51.391Z,30.50
2018-07-29T18:52:20.535Z,30.50
2018-07-29T18:54:49.408Z,30.50
2018-07-29T18:57:18.320Z,30.50
2018-07-29T18:59:47.689Z,30.50
2018-07-29T19:02:16.855Z,30.40
2018-07-29T19:04:45.773Z,30.40
2018-07-29T19:07:15.120Z,30.40
2018-07-29T19:09:43.999Z,30.40
2018-07-29T19:12:14.003Z,30.40
2018-07-29T19:14:43.614Z,30.30
2018-07-29T19:17:12.546Z,30.30
2018-07-29T19:19:41.407Z,30.20
2018-07-29T19:22:10.575Z,30.10
2018-07-29T19:24:39.532Z,30.00
2018-07-29T19:27:08.371Z,29.90
2018-07-29T19:29:37.231Z,29.80
2018-07-29T19:32:06.531Z,29.70
2018-07-29T19:34:35.660Z,29.60
2018-07-29T19:37:04.643Z,29.40
2018-07-29T19:39:33.516Z,29.20
2018-07-29T19:42:02.375Z,29.10
2018-07-29T19:44:31.518Z,29.10
2018-07-29T19:47:00.381Z,29.00
2018-07-29T19:49:29.227Z,29.00
2018-07-29T19:51:58.124Z,28.90
2018-07-29T19:54:27.310Z,28.80
2018-07-29T19:56:56.171Z,28.80
2018-07-29T19:59:25.265Z,28.80
2018-07-29T20:01:54.148Z,28.80
2018-07-29T20:04:23.022Z,28.70
2018-07-29T20:06:52.047Z,28.70
2018-07-29T20:09:20.934Z,28.70
2018-07-29T20:11:49.801Z,28.60
2018-07-29T20:14:18.710Z,28.60
2018-07-29T20:16:48.225Z,28.60
2018-07-29T20:19:17.410Z,28.60
2018-07-29T20:21:47.064Z,28.60
2018-07-29T20:24:16.218Z,28.60
2018-07-29T20:26:45.448Z,28.60
2018-07-29T20:29:14.382Z,28.70
2018-07-29T20:31:43.281Z,28.70
2018-07-29T20:34:12.193Z,28.70
2018-07-29T20:36:41.528Z,28.80
2018-07-29T20:39:11.673Z,28.80
2018-07-29T20:41:41.094Z,28.80
2018-07-29T20:44:10.702Z,28.80
2018-07-29T20:46:39.570Z,28.80
2018-07-29T20:49:08.550Z,28.80
2018-07-29T20:51:38.279Z,28.80
2018-07-29T20:54:07.378Z,28.70
2018-07-29T20:56:36.295Z,28.70
2018-07-29T20:59:05.248Z,28.70
2018-07-29T21:01:34.194Z,28.60
2018-07-29T21:04:03.054Z,28.60
2018-07-29T21:06:31.979Z,28.50
2018-07-29T21:09:00.881Z,28.40
2018-07-29T21:11:30.111Z,28.40
2018-07-29T21:13:58.899Z,28.40
2018-07-29T21:16:27.812Z,28.40
2018-07-29T21:18:57.378Z,28.40
2018-07-29T21:21:26.262Z,28.40
2018-07-29T21:23:55.262Z,28.40
2018-07-29T21:26:24.183Z,28.40
2018-07-29T21:28:53.119Z,28.40
2018-07-29T21:31:22.326Z,28.40
2018-07-29T21:33:52.775Z,28.40
2018-07-29T21:36:22.354Z,28.40
2018-07-29T21:38:51.235Z,28.50
2018-07-29T21:41:20.102Z,28.50
2018-07-29T21:43:49.235Z,28.40
2018-07-29T21:46:19.001Z,28.40
2018-07-29T21:48:48.000Z,28.40
2018-07-29T21:51:16.863Z,28.40
2018-07-29T21:53:45.735Z,28.30
2018-07-29T21:56:14.641Z,28.30
2018-07-29T21:58:43.677Z,28.30
2018-07-29T22:01:16.412Z,28.20
2018-07-29T22:03:51.240Z,28.20
2018-07-29T22:06:23.666Z,28.10
2018-07-29T22:08:56.007Z,28.10
2018-07-29T22:11:29.106Z,28.00
2018-07-29T22:14:03.565Z,28.00
2018-07-29T22:16:35.151Z,28.00
2018-07-29T22:19:09.058Z,28.10
2018-07-29T22:21:40.868Z,28.00
2018-07-29T22:24:12.260Z,28.00
2018-07-29T22:26:47.442Z,27.90
2018-07-29T22:29:23.522Z,27.90
2018-07-29T22:31:59.361Z,27.80
2018-07-29T22:34:31.247Z,27.90
2018-07-29T22:37:03.157Z,27.90
2018-07-29T22:39:34.989Z,27.90
2018-07-29T22:42:06.397Z,27.90
2018-07-29T22:44:37.421Z,27.90
2018-07-29T22:47:09.453Z,27.90
2018-07-29T22:49:40.655Z,27.90
2018-07-29T22:52:12.242Z,27.90
2018-07-29T22:54:43.123Z,27.90
2018-07-29T22:57:14.460Z,27.80
2018-07-29T22:59:45.960Z,27.80
2018-07-29T23:02:17.880Z,27.80
2018-07-29T23:04:49.631Z,27.80
2018-07-29T23:07:20.802Z,27.80
2018-07-29T23:10:01.833Z,27.70
2018-07-29T23:12:32.995Z,27.60
2018-07-29T23:15:02.227Z,27.60
2018-07-29T23:17:31.095Z,27.50
2018-07-29T23:19:59.945Z,27.40
2018-07-29T23:22:29.400Z,27.30
2018-07-29T23:25:02.219Z,27.20
2018-07-29T23:27:35.199Z,27.10
2018-07-29T23:30:07.418Z,27.10
2018-07-29T23:32:36.643Z,27.10
2018-07-29T23:35:05.560Z,27.00
2018-07-29T23:37:34.726Z,26.90
2018-07-29T23:40:03.912Z,26.90
2018-07-29T23:42:32.771Z,26.90
2018-07-29T23:45:01.645Z,27.00
2018-07-29T23:47:30.513Z,27.00
2018-07-29T23:49:59.674Z,27.00
2018-07-29T23:52:28.845Z,27.10
2018-07-29T23:54:58.184Z,27.00
2018-07-29T23:57:27.045Z,26.90
2018-07-29T23:59:56.162Z,26.80
